createdAt,value
2023-04-15T00:00:01.350Z,2.2976
2023-04-15T00:01:03.039Z,2.7194
2023-04-15T00:02:04.708Z,2.7640
2023-04-15T00:03:06.476Z,2.3611
2023-04-15T00:04:08.056Z,2.6192
2023-04-15T00:05:09.624Z,2.3955
2023-04-15T00:06:11.324Z,2.2669
2023-04-15T00:07:12.966Z,2.7723
2023-04-15T00:08:14.572Z,2.8029
2023-04-15T00:09:16.254Z,2.7343
2023-04-15T00:10:17.894Z,3.0657
2023-04-15T00:11:19.585Z,2.6698
2023-04-15T00:12:21.189Z,3.0500
2023-04-15T00:13:22.825Z,2.8608
2023-04-15T00:14:24.526Z,2.8215
2023-04-15T00:15:26.099Z,2.8085
2023-04-15T00:16:27.840Z,3.0314
2023-04-15T00:17:29.503Z,3.0038
2023-04-15T00:18:31.083Z,3.0107
2023-04-15T00:19:32.809Z,2.7662
2023-04-15T00:20:34.402Z,2.7478
2023-04-15T00:21:36.083Z,2.7137
2023-04-15T00:22:37.746Z,3.0755
2023-04-15T00:23:39.387Z,2.9360
2023-04-15T00:24:41.004Z,2.8773
2023-04-15T00:25:42.662Z,3.1301
2023-04-15T00:26:44.401Z,2.7749
2023-04-15T00:27:45.962Z,3.0844
2023-04-15T00:28:47.651Z,2.9669
2023-04-15T00:29:49.363Z,3.0417
2023-04-15T00:30:51.058Z,2.8068
2023-04-15T00:31:52.704Z,2.6815
2023-04-15T00:32:54.391Z,2.9400
2023-04-15T00:33:55.965Z,2.8361
2023-04-15T00:34:57.712Z,2.8700
2023-04-15T00:35:59.329Z,2.6821
2023-04-15T00:37:00.980Z,2.7596
2023-04-15T00:38:02.663Z,3.0284
2023-04-15T00:39:04.240Z,2.8909
2023-04-15T00:40:05.969Z,2.9895
2023-04-15T00:41:07.590Z,2.5735
2023-04-15T00:42:09.288Z,2.8966
2023-04-15T00:43:10.907Z,2.9675
2023-04-15T00:44:12.553Z,2.8040
2023-04-15T00:45:14.220Z,2.5759
2023-04-15T00:46:15.907Z,2.6120
2023-04-15T00:47:17.565Z,3.0858
2023-04-15T00:48:19.153Z,2.9042
2023-04-15T00:49:20.794Z,2.9788
2023-04-15T00:50:22.417Z,2.5325
2023-04-15T00:51:24.109Z,2.6645
2023-04-15T00:52:25.778Z,2.7883
2023-04-15T00:53:27.449Z,2.8713
2023-04-15T00:54:29.081Z,2.3744
2023-04-15T00:55:30.688Z,2.8379
2023-04-15T00:56:32.350Z,2.7883
2023-04-15T00:57:34.080Z,2.4426
2023-04-15T00:58:35.591Z,2.6174
2023-04-15T00:59:37.213Z,2.7695
2023-04-15T01:00:38.877Z,2.2977
2023-04-15T01:01:40.571Z,2.5497
2023-04-15T01:02:42.322Z,2.5756
2023-04-15T01:03:44.027Z,3.0689
2023-04-15T01:04:45.471Z,3.0177
2023-04-15T01:05:47.132Z,2.6208
2023-04-15T01:06:48.831Z,2.4216
2023-04-15T01:07:50.488Z,2.5880
2023-04-15T01:08:52.108Z,2.8579
2023-04-15T01:09:53.778Z,2.7375
2023-04-15T01:10:55.426Z,2.3713
2023-04-15T01:11:57.088Z,2.2684
2023-04-15T01:12:58.780Z,2.5993
2023-04-15T01:14:00.427Z,2.6934
2023-04-15T01:15:02.048Z,2.7096
2023-04-15T01:16:03.772Z,2.1371
2023-04-15T01:17:05.389Z,2.9185
2023-04-15T01:18:07.059Z,2.5797
2023-04-15T01:19:08.662Z,2.5560
2023-04-15T01:20:10.330Z,2.3180
2023-04-15T01:21:12.030Z,2.4425
2023-04-15T01:22:13.626Z,2.1999
2023-04-15T01:23:15.291Z,2.2350
2023-04-15T01:24:16.969Z,2.4651
2023-04-15T01:25:18.669Z,2.6660
2023-04-15T01:26:20.273Z,2.9053
2023-04-15T01:27:21.926Z,2.5345
2023-04-15T01:28:23.593Z,2.4340
2023-04-15T01:29:25.228Z,2.4973
2023-04-15T01:30:26.870Z,2.3395
2023-04-15T01:31:28.602Z,2.5201
2023-04-15T01:32:30.206Z,2.6694
2023-04-15T01:33:31.985Z,2.2826
2023-04-15T01:34:35.632Z,2.6213
2023-04-15T01:35:35.262Z,2.4169
2023-04-15T01:36:36.888Z,2.6485
2023-04-15T01:37:38.470Z,2.6065
2023-04-15T01:38:40.129Z,2.6619
2023-04-15T01:39:41.744Z,2.6017
2023-04-15T01:40:43.421Z,2.3904
2023-04-15T01:41:45.063Z,2.4597
2023-04-15T01:42:46.715Z,2.4761
2023-04-15T01:43:48.406Z,2.4664
2023-04-15T01:44:50.027Z,2.3193
2023-04-15T01:45:51.710Z,2.2826
2023-04-15T01:46:53.423Z,2.3109
2023-04-15T01:47:55.014Z,2.1568
2023-04-15T01:48:56.733Z,2.3089
2023-04-15T01:49:58.311Z,2.3463
2023-04-15T01:50:59.928Z,2.3573
2023-04-15T01:52:01.695Z,2.3329
2023-04-15T01:53:03.236Z,2.5323
2023-04-15T01:54:04.985Z,2.4413
2023-04-15T01:55:06.590Z,2.1319
2023-04-15T01:56:08.190Z,2.2677
2023-04-15T01:57:09.883Z,2.5415
2023-04-15T01:58:11.491Z,1.9283
2023-04-15T01:59:13.198Z,2.2346
2023-04-15T02:00:14.810Z,1.9880
2023-04-15T02:01:16.499Z,2.0364
2023-04-15T02:02:18.136Z,2.0419
2023-04-15T02:03:19.904Z,1.9226
2023-04-15T02:04:21.453Z,2.1137
2023-04-15T02:05:23.061Z,2.1379
2023-04-15T02:06:24.712Z,1.9318
2023-04-15T02:07:26.371Z,2.2122
2023-04-15T02:08:28.032Z,1.9270
2023-04-15T02:09:29.695Z,1.9817
2023-04-15T02:10:31.298Z,2.2462
2023-04-15T02:11:32.976Z,2.3117
2023-04-15T02:12:34.616Z,1.9078
2023-04-15T02:13:36.320Z,2.2869
2023-04-15T02:14:37.982Z,2.1708
2023-04-15T02:15:39.581Z,2.2366
2023-04-15T02:16:41.321Z,2.1744
2023-04-15T02:17:42.946Z,2.3122
2023-04-15T02:18:44.581Z,2.6166
2023-04-15T02:19:46.221Z,2.3958
2023-04-15T02:20:47.847Z,2.2447
2023-04-15T02:21:49.504Z,2.4293
2023-04-15T02:22:51.156Z,2.0215
2023-04-15T02:23:54.011Z,2.2097
2023-04-15T02:24:54.530Z,2.2251
2023-04-15T02:25:56.120Z,2.0666
2023-04-15T02:26:57.774Z,2.0503
2023-04-15T02:28:00.400Z,2.2339
2023-04-15T02:29:01.274Z,2.0355
2023-04-15T02:30:02.859Z,2.1414
2023-04-15T02:31:04.469Z,2.3662
2023-04-15T02:32:06.275Z,2.2239
2023-04-15T02:33:07.782Z,2.3479
2023-04-15T02:34:09.477Z,2.4715
2023-04-15T02:35:11.139Z,2.5011
2023-04-15T02:36:12.780Z,2.3617
2023-04-15T02:37:14.429Z,2.2335
2023-04-15T02:38:16.083Z,2.4251
2023-04-15T02:39:17.717Z,2.3649
2023-04-15T02:40:19.297Z,2.3025
2023-04-15T02:41:20.934Z,2.0123
2023-04-15T02:42:22.621Z,2.3340
2023-04-15T02:43:24.261Z,2.1619
2023-04-15T02:44:25.935Z,2.4079
2023-04-15T02:45:27.628Z,2.2922
2023-04-15T02:46:29.337Z,2.1280
2023-04-15T02:47:30.943Z,2.0590
2023-04-15T02:48:32.557Z,2.0699
2023-04-15T02:49:34.180Z,1.7447
2023-04-15T02:50:35.878Z,1.6930
2023-04-15T02:51:37.454Z,1.8083
2023-04-15T02:52:39.116Z,1.5206
2023-04-15T02:53:40.790Z,1.3783
2023-04-15T02:54:42.426Z,1.4916
2023-04-15T02:55:44.133Z,1.5198
2023-04-15T02:56:45.715Z,1.5372
2023-04-15T02:57:47.378Z,1.3820
2023-04-15T02:58:49.076Z,1.6102
2023-04-15T02:59:50.688Z,1.4142
2023-04-15T03:00:52.389Z,1.1452
2023-04-15T03:01:54.156Z,1.3886
2023-04-15T03:02:55.769Z,1.2574
2023-04-15T03:03:57.443Z,1.3501
2023-04-15T03:04:58.935Z,1.3196
2023-04-15T03:06:00.631Z,1.2771
2023-04-15T03:07:02.246Z,1.3550
2023-04-15T03:08:03.924Z,1.0835
2023-04-15T03:09:05.548Z,1.1420
2023-04-15T03:10:07.208Z,1.2343
2023-04-15T03:11:08.891Z,1.2948
2023-04-15T03:12:10.493Z,1.2286
2023-04-15T03:13:12.098Z,1.1844
2023-04-15T03:14:13.763Z,1.1898
2023-04-15T03:15:15.537Z,1.1421
2023-04-15T03:16:17.263Z,1.5033
2023-04-15T03:17:18.792Z,1.2310
2023-04-15T03:18:20.589Z,1.3256
2023-04-15T03:19:22.073Z,1.2428
2023-04-15T03:20:23.808Z,1.2915
2023-04-15T03:21:25.483Z,1.2869
2023-04-15T03:22:27.052Z,1.2841
2023-04-15T03:23:28.737Z,1.2326
2023-04-15T03:24:30.369Z,1.1627
2023-04-15T03:25:32.111Z,1.0676
2023-04-15T03:26:33.739Z,1.0905
2023-04-15T03:27:35.372Z,1.1923
2023-04-15T03:28:36.971Z,1.2476
2023-04-15T03:29:38.622Z,1.1618
2023-04-15T03:30:40.353Z,1.2667
2023-04-15T03:31:42.032Z,1.1518
2023-04-15T03:32:43.563Z,1.1157
2023-04-15T03:33:45.215Z,1.1544
2023-04-15T03:34:46.891Z,1.4082
2023-04-15T03:35:48.491Z,1.3790
2023-04-15T03:36:50.234Z,1.1338
2023-04-15T03:37:51.771Z,1.2563
2023-04-15T03:38:53.414Z,1.2653
2023-04-15T03:39:55.107Z,1.1795
2023-04-15T03:40:56.711Z,1.1851
2023-04-15T03:41:58.428Z,1.0202
2023-04-15T03:43:00.130Z,0.9798
2023-04-15T03:44:01.574Z,1.0856
2023-04-15T03:45:03.275Z,1.1500
2023-04-15T03:46:04.951Z,1.2911
2023-04-15T03:47:06.633Z,1.0635
2023-04-15T03:48:17.060Z,1.2359
2023-04-15T03:49:09.862Z,1.3044
2023-04-15T03:50:11.494Z,1.2751
2023-04-15T03:51:13.114Z,0.9828
2023-04-15T03:52:14.764Z,1.1471
2023-04-15T03:53:16.412Z,1.0393
2023-04-15T03:54:18.078Z,1.0266
2023-04-15T03:55:19.720Z,1.1299
2023-04-15T03:56:21.344Z,0.9106
2023-04-15T03:57:23.007Z,1.1527
2023-04-15T03:58:24.648Z,1.1665
2023-04-15T03:59:26.271Z,1.1113
2023-04-15T04:00:27.955Z,1.0984
2023-04-15T04:01:29.570Z,1.0434
2023-04-15T04:02:31.335Z,1.0208
2023-04-15T04:03:32.951Z,0.8390
2023-04-15T04:04:34.558Z,1.0778
2023-04-15T04:05:36.152Z,1.2707
2023-04-15T04:06:37.803Z,1.3071
2023-04-15T04:07:39.473Z,1.2978
2023-04-15T04:08:41.111Z,1.1912
2023-04-15T04:09:42.734Z,1.1816
2023-04-15T04:10:44.394Z,1.3020
2023-04-15T04:11:46.031Z,1.4432
2023-04-15T04:12:47.782Z,1.2835
2023-04-15T04:13:49.347Z,1.4450
2023-04-15T04:14:50.947Z,1.2710
2023-04-15T04:15:52.657Z,1.1826
2023-04-15T04:16:54.319Z,1.3781
2023-04-15T04:17:55.993Z,1.3937
2023-04-15T04:18:57.583Z,1.4776
2023-04-15T04:19:59.324Z,1.4185
2023-04-15T04:21:00.947Z,1.0107
2023-04-15T04:22:02.705Z,1.3908
2023-04-15T04:23:04.313Z,1.4105
2023-04-15T04:24:05.830Z,1.4913
2023-04-15T04:25:07.440Z,1.4282
2023-04-15T04:26:09.142Z,1.5571
2023-04-15T04:27:10.797Z,1.2783
2023-04-15T04:28:12.416Z,1.2051
2023-04-15T04:29:14.051Z,1.1353
2023-04-15T04:30:15.715Z,1.1691
2023-04-15T04:31:17.420Z,0.9613
2023-04-15T04:32:19.069Z,0.9219
2023-04-15T04:33:20.656Z,1.0417
2023-04-15T04:34:22.312Z,0.9503
2023-04-15T04:35:23.956Z,1.2494
2023-04-15T04:36:25.579Z,0.9402
2023-04-15T04:37:27.313Z,0.9796
2023-04-15T04:38:28.880Z,1.1731
2023-04-15T04:39:30.570Z,1.0696
2023-04-15T04:40:32.166Z,1.1572
2023-04-15T04:41:33.838Z,1.0583
2023-04-15T04:42:36.803Z,0.7661
2023-04-15T04:43:37.128Z,1.0011
2023-04-15T04:44:38.779Z,0.8220
2023-04-15T04:45:40.464Z,0.6689
2023-04-15T04:46:42.085Z,0.9491
2023-04-15T04:47:43.836Z,1.0946
2023-04-15T04:49:00.000Z,0.7545
2023-04-15T04:49:47.062Z,0.9916
2023-04-15T04:50:48.665Z,0.9025
2023-04-15T04:51:50.368Z,1.0229
2023-04-15T04:52:52.024Z,0.9361
2023-04-15T04:53:53.655Z,1.2690
2023-04-15T04:54:55.278Z,0.9129
2023-04-15T04:55:56.928Z,0.8583
2023-04-15T04:56:58.588Z,0.8691
2023-04-15T04:58:00.268Z,0.8558
2023-04-15T04:59:02.130Z,0.8681
2023-04-15T05:00:03.608Z,0.8926
2023-04-15T05:01:05.316Z,0.8249
2023-04-15T05:02:06.930Z,0.9892
2023-04-15T05:03:08.763Z,0.8876
2023-04-15T05:04:10.396Z,0.8115
2023-04-15T05:05:11.882Z,0.7789
2023-04-15T05:06:13.525Z,0.9984
2023-04-15T05:07:15.160Z,0.7795
2023-04-15T05:08:16.856Z,0.7733
2023-04-15T05:09:18.548Z,0.9222
2023-04-15T05:10:20.145Z,0.9388
2023-04-15T05:11:21.874Z,0.7669
2023-04-15T05:12:23.435Z,0.6913
2023-04-15T05:13:25.145Z,0.8208
2023-04-15T05:14:26.752Z,0.9407
2023-04-15T05:15:28.539Z,0.9410
2023-04-15T05:16:29.912Z,0.8583
2023-04-15T05:17:31.779Z,0.8260
2023-04-15T05:18:33.419Z,0.9120
2023-04-15T05:19:35.003Z,0.8620
2023-04-15T05:20:36.623Z,0.9329
2023-04-15T05:21:39.512Z,0.8984
2023-04-15T05:22:39.954Z,0.9673
2023-04-15T05:23:41.624Z,0.7756
2023-04-15T05:24:43.294Z,0.8575
2023-04-15T05:25:44.907Z,0.9062
2023-04-15T05:26:46.589Z,0.8727
2023-04-15T05:27:48.132Z,0.8410
2023-04-15T05:28:49.729Z,0.8673
2023-04-15T05:29:51.407Z,0.9300
2023-04-15T05:30:53.069Z,0.9990
2023-04-15T05:31:54.660Z,1.1858
2023-04-15T05:32:56.329Z,1.1251
2023-04-15T05:33:58.003Z,1.0842
2023-04-15T05:34:59.628Z,1.0219
2023-04-15T05:36:01.219Z,1.0118
2023-04-15T05:37:02.918Z,1.1371
2023-04-15T05:38:04.564Z,1.0031
2023-04-15T05:39:06.332Z,1.1110
2023-04-15T05:40:07.953Z,1.0732
2023-04-15T05:41:09.638Z,1.4304
2023-04-15T05:42:11.249Z,1.0559
2023-04-15T05:43:12.864Z,1.0480
2023-04-15T05:44:14.605Z,1.3519
2023-04-15T05:45:16.192Z,1.2855
2023-04-15T05:46:18.002Z,1.0854
2023-04-15T05:47:19.576Z,1.1300
2023-04-15T05:48:21.167Z,1.0044
2023-04-15T05:49:22.840Z,1.0845
2023-04-15T05:50:24.431Z,1.1209
2023-04-15T05:51:26.085Z,0.9524
2023-04-15T05:52:27.704Z,0.9595
2023-04-15T05:53:29.358Z,0.9414
2023-04-15T05:54:31.056Z,1.2157
2023-04-15T05:55:32.673Z,1.0398
2023-04-15T05:56:34.311Z,0.9906
2023-04-15T05:57:36.029Z,0.9707
2023-04-15T05:58:37.712Z,1.1231
2023-04-15T05:59:39.352Z,1.2264
2023-04-15T06:00:41.009Z,1.0527
2023-04-15T06:01:42.590Z,1.0525
2023-04-15T06:02:44.420Z,0.8796
2023-04-15T06:03:46.110Z,1.1210
2023-04-15T06:04:47.643Z,0.9933
2023-04-15T06:05:49.212Z,1.0885
2023-04-15T06:06:50.868Z,0.9635
2023-04-15T06:07:52.443Z,1.1704
2023-04-15T06:08:54.116Z,1.1816
2023-04-15T06:09:55.801Z,1.1761
2023-04-15T06:10:57.402Z,1.0413
2023-04-15T06:11:59.060Z,1.1347
2023-04-15T06:13:00.700Z,1.1831
2023-04-15T06:14:02.387Z,1.1445
2023-04-15T06:15:04.034Z,0.8781
2023-04-15T06:16:05.701Z,1.4305
2023-04-15T06:17:07.315Z,1.4528
2023-04-15T06:18:08.936Z,1.2865
2023-04-15T06:19:10.642Z,1.2787
2023-04-15T06:20:12.273Z,1.2392
2023-04-15T06:21:13.914Z,1.2578
2023-04-15T06:22:15.559Z,1.2262
2023-04-15T06:23:17.247Z,1.4906
2023-04-15T06:24:18.856Z,1.3230
2023-04-15T06:25:20.533Z,1.3396
2023-04-15T06:26:22.179Z,1.2636
2023-04-15T06:27:23.805Z,1.1732
2023-04-15T06:28:25.460Z,1.2364
2023-04-15T06:29:27.152Z,1.2571
2023-04-15T06:30:28.772Z,1.1851
2023-04-15T06:31:30.508Z,1.1582
2023-04-15T06:32:32.120Z,1.2545
2023-04-15T06:33:33.704Z,0.8801
2023-04-15T06:34:35.406Z,1.1638
2023-04-15T06:35:37.025Z,1.1644
2023-04-15T06:36:38.660Z,1.0521
2023-04-15T06:37:40.357Z,1.1297
2023-04-15T06:38:41.969Z,1.1289
2023-04-15T06:39:43.683Z,1.0813
2023-04-15T06:40:45.301Z,1.1195
2023-04-15T06:41:46.929Z,1.2009
2023-04-15T06:42:48.613Z,1.2059
2023-04-15T06:43:50.254Z,1.0346
2023-04-15T06:44:51.942Z,1.0254
2023-04-15T06:45:53.538Z,0.9465
2023-04-15T06:46:55.193Z,1.1389
2023-04-15T06:47:56.896Z,1.1868
2023-04-15T06:48:59.596Z,1.3408
2023-04-15T06:50:00.295Z,1.4763
2023-04-15T06:51:01.892Z,1.5281
2023-04-15T06:52:03.534Z,1.3696
2023-04-15T06:53:05.198Z,1.2659
2023-04-15T06:54:06.836Z,1.2040
2023-04-15T06:55:08.550Z,1.3288
2023-04-15T06:56:10.197Z,1.2616
2023-04-15T06:57:11.795Z,1.4366
2023-04-15T06:58:13.472Z,1.5418
2023-04-15T06:59:15.129Z,1.3428
2023-04-15T07:00:16.801Z,1.2766
2023-04-15T07:01:18.494Z,1.5098
2023-04-15T07:02:20.175Z,1.5042
2023-04-15T07:03:21.700Z,1.5550
2023-04-15T07:04:23.397Z,1.3157
2023-04-15T07:05:25.091Z,1.4914
2023-04-15T07:06:26.700Z,1.4937
2023-04-15T07:07:28.369Z,1.3881
2023-04-15T07:08:29.958Z,1.5179
2023-04-15T07:09:31.581Z,1.4083
2023-04-15T07:10:33.390Z,1.2450
2023-04-15T07:11:34.920Z,1.4522
2023-04-15T07:12:36.563Z,1.2916
2023-04-15T07:13:38.181Z,1.5246
2023-04-15T07:14:39.812Z,1.5171
2023-04-15T07:15:41.505Z,1.3947
2023-04-15T07:16:43.187Z,1.5401
2023-04-15T07:17:44.787Z,1.5666
2023-04-15T07:18:46.371Z,1.3556
2023-04-15T07:19:48.035Z,1.5272
2023-04-15T07:20:49.746Z,1.3038
2023-04-15T07:21:51.350Z,1.6407
2023-04-15T07:22:52.954Z,1.7170
2023-04-15T07:23:54.774Z,1.5312
2023-04-15T07:24:56.268Z,1.5958
2023-04-15T07:25:57.950Z,1.5500
2023-04-15T07:27:01.014Z,1.6663
2023-04-15T07:28:01.309Z,1.7054
2023-04-15T07:29:03.183Z,1.4736
2023-04-15T07:30:04.551Z,1.7574
2023-04-15T07:31:06.282Z,1.8861
2023-04-15T07:32:07.975Z,1.5950
2023-04-15T07:33:09.501Z,1.8774
2023-04-15T07:34:11.172Z,1.6735
2023-04-15T07:35:12.823Z,1.5771
2023-04-15T07:36:14.506Z,2.1134
2023-04-15T07:37:16.102Z,1.6831
2023-04-15T07:38:17.742Z,1.9611
2023-04-15T07:39:19.444Z,2.2686
2023-04-15T07:40:21.052Z,2.1132
2023-04-15T07:41:22.764Z,2.3681
2023-04-15T07:42:24.338Z,1.8203
2023-04-15T07:43:26.058Z,2.0788
2023-04-15T07:44:27.716Z,1.7405
2023-04-15T07:45:29.279Z,1.6566
2023-04-15T07:46:30.997Z,2.0865
2023-04-15T07:47:32.660Z,2.1919
2023-04-15T07:48:35.613Z,2.0487
2023-04-15T07:49:35.856Z,2.1987
2023-04-15T07:50:37.429Z,1.9727
2023-04-15T07:51:39.047Z,1.9401
2023-04-15T07:52:40.693Z,2.1409
2023-04-15T07:53:42.327Z,2.1094
2023-04-15T07:54:44.005Z,2.3141
2023-04-15T07:55:45.657Z,2.3784
2023-04-15T07:56:47.366Z,2.0121
2023-04-15T07:57:48.943Z,2.2292
2023-04-15T07:58:50.604Z,2.2918
2023-04-15T07:59:52.242Z,2.2105
2023-04-15T08:00:53.872Z,1.9949
2023-04-15T08:01:55.593Z,2.1873
2023-04-15T08:02:57.321Z,2.0859
2023-04-15T08:03:58.889Z,2.0621
2023-04-15T08:05:00.493Z,2.2354
2023-04-15T08:06:02.095Z,2.1462
2023-04-15T08:07:03.752Z,2.1779
2023-04-15T08:08:05.386Z,2.2654
2023-04-15T08:09:07.252Z,2.1668
2023-04-15T08:10:08.678Z,2.2238
2023-04-15T08:11:10.539Z,2.2495
2023-04-15T08:12:12.002Z,2.0992
2023-04-15T08:13:13.605Z,2.1115
2023-04-15T08:14:15.237Z,2.2798
2023-04-15T08:15:16.896Z,2.0140
2023-04-15T08:16:18.631Z,1.9671
2023-04-15T08:17:20.235Z,2.0873
2023-04-15T08:18:21.934Z,1.9844
2023-04-15T08:19:23.477Z,2.1499
2023-04-15T08:20:25.137Z,2.2251
2023-04-15T08:21:26.755Z,2.3226
2023-04-15T08:22:28.482Z,2.0380
2023-04-15T08:23:30.061Z,2.0647
2023-04-15T08:24:31.709Z,1.9757
2023-04-15T08:25:33.430Z,2.2126
2023-04-15T08:26:35.050Z,2.4263
2023-04-15T08:27:36.756Z,1.9605
2023-04-15T08:28:38.345Z,2.1934
2023-04-15T08:29:39.993Z,2.2671
2023-04-15T08:30:41.646Z,2.2815
2023-04-15T08:31:43.354Z,2.1931
2023-04-15T08:32:45.049Z,2.2756
2023-04-15T08:33:46.594Z,2.2435
2023-04-15T08:34:48.257Z,1.9962
2023-04-15T08:35:49.862Z,2.1496
2023-04-15T08:36:51.590Z,2.0454
2023-04-15T08:37:53.220Z,2.2460
2023-04-15T08:38:54.854Z,1.9034
2023-04-15T08:39:56.480Z,1.9801
2023-04-15T08:40:58.093Z,1.9898
2023-04-15T08:41:59.721Z,2.0284
2023-04-15T08:43:01.401Z,2.2301
2023-04-15T08:44:03.067Z,2.2571
2023-04-15T08:45:04.685Z,2.1328
2023-04-15T08:46:06.230Z,1.8462
2023-04-15T08:47:07.983Z,1.8266
2023-04-15T08:48:09.574Z,1.9856
2023-04-15T08:49:11.162Z,1.9609
2023-04-15T08:50:12.817Z,1.7887
2023-04-15T08:51:14.483Z,1.6905
2023-04-15T08:52:16.129Z,1.6697
2023-04-15T08:53:17.741Z,1.5781
2023-04-15T08:54:19.413Z,1.8186
2023-04-15T08:55:21.025Z,1.5755
2023-04-15T08:56:22.698Z,1.6022
2023-04-15T08:57:24.321Z,1.7301
2023-04-15T08:58:25.987Z,1.9665
2023-04-15T08:59:27.587Z,1.7740
2023-04-15T09:00:29.244Z,1.7603
2023-04-15T09:01:30.935Z,2.0153
2023-04-15T09:02:32.620Z,1.9412
2023-04-15T09:03:34.356Z,2.6231
2023-04-15T09:04:35.796Z,2.2546
2023-04-15T09:05:37.485Z,2.4396
2023-04-15T09:06:39.074Z,2.3492
2023-04-15T09:07:40.718Z,2.3941
2023-04-15T09:08:42.399Z,2.1641
2023-04-15T09:09:44.005Z,2.3638
2023-04-15T09:10:45.657Z,2.4749
2023-04-15T09:11:47.298Z,2.6876
2023-04-15T09:12:48.940Z,2.6883
2023-04-15T09:13:50.641Z,2.9411
2023-04-15T09:14:52.256Z,2.4863
2023-04-15T09:15:53.885Z,2.4592
2023-04-15T09:16:55.560Z,2.5559
2023-04-15T09:17:57.219Z,2.2904
2023-04-15T09:18:58.821Z,2.7255
2023-04-15T09:20:00.437Z,2.3937
2023-04-15T09:21:02.101Z,2.1197
2023-04-15T09:22:03.795Z,2.3973
2023-04-15T09:23:05.456Z,2.2304
2023-04-15T09:24:07.174Z,2.3491
2023-04-15T09:25:08.911Z,2.4019
2023-04-15T09:26:10.424Z,2.6015
2023-04-15T09:27:12.082Z,2.6272
2023-04-15T09:28:13.737Z,2.4319
2023-04-15T09:29:15.341Z,2.4835
2023-04-15T09:30:17.049Z,2.3097
2023-04-15T09:31:18.698Z,2.4719
2023-04-15T09:32:20.274Z,2.1730
2023-04-15T09:33:21.899Z,2.4605
2023-04-15T09:34:23.490Z,2.5181
2023-04-15T09:35:25.095Z,2.5410
2023-04-15T09:36:26.753Z,2.6749
2023-04-15T09:37:32.461Z,2.4703
2023-04-15T09:38:30.082Z,2.1640
2023-04-15T09:39:31.701Z,2.1911
2023-04-15T09:40:33.374Z,2.1143
2023-04-15T09:41:34.972Z,2.1298
2023-04-15T09:42:36.643Z,2.4812
2023-04-15T09:43:38.283Z,2.4010
2023-04-15T09:44:39.893Z,2.4426
2023-04-15T09:45:41.576Z,2.3577
2023-04-15T09:46:43.215Z,2.2357
2023-04-15T09:47:44.843Z,2.1436
2023-04-15T09:48:46.719Z,2.2643
2023-04-15T09:49:48.244Z,2.3117
2023-04-15T09:50:49.735Z,2.5528
2023-04-15T09:52:04.124Z,2.2492
2023-04-15T09:52:53.043Z,2.0770
2023-04-15T09:53:54.685Z,1.6679
2023-04-15T09:54:56.327Z,1.8328
2023-04-15T09:55:57.934Z,1.9917
2023-04-15T09:56:59.588Z,1.7785
2023-04-15T09:58:01.200Z,1.6868
2023-04-15T09:59:02.882Z,1.5749
2023-04-15T10:00:04.496Z,1.6473
2023-04-15T10:01:06.193Z,2.0043
2023-04-15T10:02:07.978Z,1.6234
2023-04-15T10:03:09.553Z,1.5021
2023-04-15T10:04:11.266Z,1.3172
2023-04-15T10:05:12.738Z,1.4828
2023-04-15T10:06:14.365Z,1.8002
2023-04-15T10:07:16.019Z,1.9596
2023-04-15T10:08:17.638Z,1.9263
2023-04-15T10:09:19.405Z,1.9599
2023-04-15T10:10:21.017Z,1.8648
2023-04-15T10:11:22.653Z,2.0740
2023-04-15T10:12:24.343Z,2.1968
2023-04-15T10:13:25.960Z,2.1767
2023-04-15T10:14:27.666Z,2.3006
2023-04-15T10:15:29.362Z,2.0628
2023-04-15T10:16:30.930Z,1.7668
2023-04-15T10:17:32.651Z,1.7297
2023-04-15T10:18:34.195Z,1.6500
2023-04-15T10:19:35.874Z,1.6779
2023-04-15T10:20:37.475Z,1.9526
2023-04-15T10:21:39.151Z,1.9512
2023-04-15T10:22:40.781Z,1.8060
2023-04-15T10:23:42.414Z,1.9274
2023-04-15T10:24:44.133Z,2.0309
2023-04-15T10:25:45.707Z,2.0024
2023-04-15T10:26:47.389Z,2.2337
2023-04-15T10:27:48.967Z,2.1373
2023-04-15T10:28:50.672Z,2.0339
2023-04-15T10:29:52.230Z,2.0779
2023-04-15T10:30:53.901Z,1.9293
2023-04-15T10:31:55.421Z,1.8873
2023-04-15T10:32:57.100Z,1.9999
2023-04-15T10:33:58.753Z,2.1635
2023-04-15T10:35:00.374Z,1.7752
2023-04-15T10:36:02.040Z,1.8039
2023-04-15T10:37:03.765Z,2.0937
2023-04-15T10:38:05.267Z,2.0408
2023-04-15T10:39:06.898Z,1.7692
2023-04-15T10:40:08.597Z,1.4733
2023-04-15T10:41:10.198Z,1.7029
2023-04-15T10:42:11.837Z,1.6481
2023-04-15T10:43:13.478Z,1.5531
2023-04-15T10:44:15.138Z,1.7863
2023-04-15T10:45:16.800Z,1.8700
2023-04-15T10:46:18.449Z,1.5265
2023-04-15T10:47:20.050Z,1.8038
2023-04-15T10:48:21.708Z,2.1290
2023-04-15T10:49:23.359Z,1.7494
2023-04-15T10:50:25.013Z,1.8419
2023-04-15T10:51:26.664Z,1.7515
2023-04-15T10:52:28.291Z,1.8435
2023-04-15T10:53:29.926Z,1.8628
2023-04-15T10:54:31.585Z,1.7359
2023-04-15T10:55:33.269Z,1.9997
2023-04-15T10:56:34.860Z,2.2573
2023-04-15T10:57:36.491Z,2.3690
2023-04-15T10:58:38.135Z,2.3115
2023-04-15T10:59:39.768Z,2.5955
2023-04-15T11:00:41.435Z,2.6236
2023-04-15T11:01:43.072Z,2.5989
2023-04-15T11:02:44.933Z,2.6053
2023-04-15T11:03:46.490Z,2.5127
2023-04-15T11:04:48.133Z,2.2233
2023-04-15T11:05:49.841Z,2.3657
2023-04-15T11:06:51.354Z,2.1532
2023-04-15T11:07:53.020Z,2.1327
2023-04-15T11:08:54.609Z,2.4833
2023-04-15T11:09:56.249Z,2.1845
2023-04-15T11:10:57.932Z,1.8931
2023-04-15T11:11:59.564Z,1.8363
2023-04-15T11:13:01.195Z,2.5689
2023-04-15T11:14:03.039Z,2.2393
2023-04-15T11:15:04.468Z,2.5975
2023-04-15T11:16:06.187Z,2.5112
2023-04-15T11:17:07.768Z,2.1793
2023-04-15T11:18:09.413Z,2.0002
2023-04-15T11:19:10.913Z,2.0328
2023-04-15T11:20:12.650Z,2.1175
2023-04-15T11:21:14.270Z,2.1011
2023-04-15T11:22:15.884Z,2.3698
2023-04-15T11:23:17.523Z,2.1450
2023-04-15T11:24:19.164Z,2.5274
2023-04-15T11:25:20.788Z,2.5805
2023-04-15T11:26:22.446Z,2.3480
2023-04-15T11:27:24.083Z,2.2094
2023-04-15T11:28:25.727Z,2.6753
2023-04-15T11:29:27.420Z,2.7137
2023-04-15T11:30:29.089Z,2.9259
2023-04-15T11:31:30.743Z,2.8466
2023-04-15T11:32:32.399Z,2.8376
2023-04-15T11:33:33.972Z,2.5499
2023-04-15T11:34:36.225Z,2.5429
2023-04-15T11:35:37.286Z,2.2712
2023-04-15T11:36:38.944Z,2.6790
2023-04-15T11:37:40.542Z,2.4636
2023-04-15T11:38:42.186Z,2.4025
2023-04-15T11:39:43.812Z,2.3136
2023-04-15T11:40:47.184Z,2.4213
2023-04-15T11:41:47.146Z,2.4594
2023-04-15T11:42:49.859Z,2.4122
2023-04-15T11:43:50.391Z,2.4361
2023-04-15T11:44:52.046Z,2.4563
2023-04-15T11:45:53.824Z,2.2973
2023-04-15T11:46:55.347Z,2.3072
2023-04-15T11:47:57.009Z,2.1246
2023-04-15T11:48:58.644Z,2.1255
2023-04-15T11:50:00.248Z,2.0348
2023-04-15T11:51:01.933Z,2.2699
2023-04-15T11:52:03.562Z,2.3984
2023-04-15T11:53:08.163Z,2.1318
2023-04-15T11:54:07.116Z,2.1529
2023-04-15T11:55:08.680Z,2.2823
2023-04-15T11:56:10.215Z,2.4981
2023-04-15T11:57:11.887Z,2.1970
2023-04-15T11:58:15.108Z,2.3247
2023-04-15T11:59:15.114Z,2.4303
2023-04-15T12:00:16.763Z,2.6199
2023-04-15T12:01:18.393Z,2.4013
2023-04-15T12:02:20.190Z,2.3694
2023-04-15T12:03:21.845Z,2.3384
2023-04-15T12:04:25.626Z,2.6545
2023-04-15T12:05:25.096Z,2.0602
2023-04-15T12:06:26.594Z,2.1348
2023-04-15T12:07:28.367Z,2.0051
2023-04-15T12:08:29.986Z,2.1169
2023-04-15T12:09:32.478Z,2.0347
2023-04-15T12:10:33.195Z,2.0506
2023-04-15T12:11:34.831Z,1.7727
2023-04-15T12:12:36.514Z,1.8757
2023-04-15T12:13:38.044Z,1.8992
2023-04-15T12:14:39.704Z,1.9289
2023-04-15T12:15:41.354Z,1.9255
2023-04-15T12:16:48.377Z,1.9163
2023-04-15T12:17:51.300Z,1.7843
2023-04-15T12:18:46.226Z,2.0102
2023-04-15T12:19:47.894Z,2.1215
2023-04-15T12:20:49.522Z,1.9680
2023-04-15T12:21:51.191Z,2.1267
2023-04-15T12:22:52.826Z,1.9426
2023-04-15T12:23:54.435Z,2.1382
2023-04-15T12:24:56.085Z,1.9366
2023-04-15T12:25:57.722Z,2.3455
2023-04-15T12:26:59.362Z,2.5415
2023-04-15T12:28:01.037Z,1.9365
2023-04-15T12:29:02.679Z,2.1771
2023-04-15T12:30:04.501Z,1.9142
2023-04-15T12:31:05.992Z,2.2013
2023-04-15T12:32:07.584Z,2.3328
2023-04-15T12:33:09.304Z,2.1919
2023-04-15T12:34:10.845Z,1.9129
2023-04-15T12:35:12.499Z,1.9961
2023-04-15T12:36:14.167Z,1.7835
2023-04-15T12:37:15.783Z,1.9451
2023-04-15T12:38:17.449Z,1.8850
2023-04-15T12:39:19.062Z,1.9135
2023-04-15T12:40:20.727Z,1.9897
2023-04-15T12:41:22.363Z,1.9937
2023-04-15T12:42:24.003Z,1.8908
2023-04-15T12:43:25.647Z,1.7769
2023-04-15T12:44:27.310Z,1.7248
2023-04-15T12:45:30.033Z,1.9164
2023-04-15T12:46:30.688Z,1.8951
2023-04-15T12:47:32.364Z,1.6556
2023-04-15T12:48:34.033Z,1.9158